Time;durP1;ratioP1;P1;durP2;ratioP2;P2;SDS_P1;SDS_P2;PMS_P1;PMS_P2;Temp;Humidity;BMP_temperature;BMP_pressure;BME280_temperature;BME280_humidity;BME280_pressure;Samples;Min_cycle;Max_cycle;Signal;HPM_P1;HPM_P2
2021/12/04 08:52:17;;;;;;;5.25;1.33;;;;;;;12.12;46.40;99639.34;5828683;23;20370;-87
2021/12/04 08:54:43;;;;;;;10.82;2.08;;;;;;;11.58;47.96;99659.69;4845475;29;20040;-87
2021/12/04 08:57:09;;;;;;;9.50;2.03;;;;;;;11.87;47.03;99649.59;4860521;29;20128;-78
2021/12/04 08:59:35;;;;;;;8.75;2.42;;;;;;;11.42;48.08;99653.34;4843769;29;20112;-80
2021/12/04 09:02:01;;;;;;;6.15;1.52;;;;;;;11.62;47.76;99655.09;4860362;29;20116;-81
2021/12/04 09:04:31;;;;;;;8.88;3.88;;;;;;;11.49;48.13;99652.75;4859980;29;20037;-85
2021/12/04 09:06:58;;;;;;;6.32;1.85;;;;;;;11.93;46.72;99654.44;4859809;29;20030;-79
2021/12/04 09:09:27;;;;;;;8.55;1.73;;;;;;;11.71;47.41;99652.22;4843343;29;20028;-80
2021/12/04 09:11:59;;;;;;;5.82;1.10;;;;;;;11.30;48.72;99667.81;4859532;29;20033;-83
2021/12/04 09:14:28;;;;;;;4.78;1.30;;;;;;;11.32;49.00;99651.06;4843281;29;20037;-84
2021/12/04 09:16:55;;;;;;;4.80;1.10;;;;;;;11.65;47.82;99665.38;4843096;29;20128;-81
2021/12/04 09:19:23;;;;;;;4.90;1.35;;;;;;;11.75;47.67;99657.81;4859856;29;20032;-83
2021/12/04 09:21:49;;;;;;;7.72;1.15;;;;;;;11.72;47.78;99659.31;4859593;29;20025;-80
2021/12/04 09:24:21;;;;;;;7.55;2.15;;;;;;;12.19;46.65;99666.91;4860763;29;20552;-81
2021/12/04 10:03:59;;;;;;;9.18;1.80;;;;;;;12.26;47.29;99712.88;4866026;29;20033;-79
2021/12/04 10:22:44;;;;;;;5.72;1.38;;;;;;;13.48;44.26;99714.84;4865279;29;20050;-78
2021/12/04 10:33:47;;;;;;;9.63;2.47;;;;;;;13.78;43.61;99715.91;4865546;29;20421;-80
2021/12/04 10:36:24;;;;;;;7.85;2.08;;;;;;;13.71;43.54;99721.25;4843938;29;20047;-82
2021/12/04 10:38:50;;;;;;;9.13;2.25;;;;;;;13.27;44.45;99720.59;4863560;29;20444;-83
2021/12/04 10:41:16;;;;;;;5.50;1.88;;;;;;;12.94;44.55;99729.97;4863463;29;20096;-82
2021/12/04 10:43:42;;;;;;;6.05;2.50;;;;;;;13.29;43.62;99741.03;4846960;29;20045;-82
2021/12/04 10:46:21;;;;;;;8.05;1.70;;;;;;;13.40;43.26;99754.22;4863850;29;20528;-83
2021/12/04 10:48:55;;;;;;;8.65;2.67;;;;;;;13.87;42.52;99732.97;4864052;29;20151;-83
2021/12/04 10:51:35;;;;;;;7.05;2.60;;;;;;;13.87;42.50;99748.66;4846012;29;20047;-83
2021/12/04 10:54:25;;;;;;;4.18;1.45;;;;;;;13.55;43.45;99747.94;4846761;29;20087;-82
2021/12/04 10:57:03;;;;;;;8.18;2.15;;;;;;;14.04;42.21;99742.72;4876498;29;20081;-84
2021/12/04 10:59:47;;;;;;;5.75;1.90;;;;;;;13.46;43.43;99758.31;4861396;29;20059;-84
2021/12/04 11:02:27;;;;;;;4.85;1.73;;;;;;;13.39;43.35;99747.16;4862182;29;20037;-84
2021/12/04 11:05:00;;;;;;;8.10;1.63;;;;;;;13.72;42.88;99757.72;4860870;29;20033;-81
2021/12/04 11:24:20;;;;;;;3.83;1.27;;;;;;;13.97;42.08;99769.25;4879325;29;20502;-81
2021/12/04 11:43:07;;;;;;;4.63;1.45;;;;;;;13.39;43.21;99769.09;4879136;29;20515;-81
2021/12/04 11:46:12;;;;;;;5.55;1.40;;;;;;;13.88;42.55;99773.00;4861805;29;20469;-82
2021/12/04 11:48:29;;;;;;;4.47;1.30;;;;;;;13.98;42.03;99776.31;4877758;29;20131;-81
2021/12/04 11:50:55;;;;;;;4.00;1.20;;;;;;;13.98;41.99;99779.06;4878436;29;20480;-82
2021/12/04 11:53:20;;;;;;;3.72;1.50;;;;;;;14.26;41.78;99776.94;4861645;29;20063;-82
2021/12/04 11:55:48;;;;;;;3.10;1.35;;;;;;;14.43;41.47;99773.78;4861612;29;20528;-81
2021/12/04 11:58:33;;;;;;;3.55;1.33;;;;;;;14.08;42.12;99768.34;4861684;29;20738;-80
2021/12/04 12:01:05;;;;;;;3.33;1.27;;;;;;;13.86;42.37;99780.81;4878398;29;20183;-81
2021/12/04 12:03:34;;;;;;;6.75;1.38;;;;;;;14.12;41.91;99784.88;4861560;29;20396;-82
2021/12/04 12:06:02;;;;;;;3.97;1.43;;;;;;;14.20;41.96;99789.38;4861533;29;20033;-82
2021/12/04 12:08:31;;;;;;;5.53;1.25;;;;;;;14.10;41.98;99782.50;4878307;29;20268;-81
2021/12/04 12:11:01;;;;;;;6.25;2.03;;;;;;;14.36;41.52;99787.38;4861633;29;20037;-81
2021/12/04 12:13:33;;;;;;;5.43;1.80;;;;;;;14.23;41.78;99779.63;4861644;29;20120;-81
2021/12/04 12:16:17;;;;;;;6.65;1.20;;;;;;;13.86;42.55;99797.28;4878130;29;20036;-82
2021/12/04 12:18:53;;;;;;;7.72;1.13;;;;;;;14.43;41.52;99794.94;4878176;29;20033;-82
2021/12/04 12:21:28;;;;;;;2.95;1.50;;;;;;;14.22;41.97;99791.78;4878282;29;20025;-81
2021/12/04 12:27:16;;;;;;;5.47;1.50;;;;;;;13.88;42.78;99799.66;4863486;29;20068;-82
2021/12/04 12:33:12;;;;;;;3.78;1.17;;;;;;;14.09;42.10;99815.81;4864981;29;20508;-81
2021/12/04 12:36:09;;;;;;;3.80;1.13;;;;;;;13.83;42.70;99813.69;4878319;29;20029;-81
2021/12/04 12:38:39;;;;;;;6.43;1.40;;;;;;;14.19;42.16;99818.00;4878189;29;20029;-81
2021/12/04 12:41:08;;;;;;;6.00;1.40;;;;;;;14.03;42.50;99820.78;4861272;29;20033;-82
2021/12/04 12:43:42;;;;;;;4.63;1.30;;;;;;;14.16;42.10;99829.72;4878031;29;20025;-82
2021/12/04 12:46:08;;;;;;;7.15;1.42;;;;;;;14.37;41.57;99821.16;4861319;29;20029;-82
2021/12/04 12:48:48;;;;;;;4.93;1.05;;;;;;;13.66;43.10;99828.56;4861441;29;20029;-82
2021/12/04 12:51:14;;;;;;;3.50;1.35;;;;;;;14.10;42.06;99829.19;4878161;29;20451;-82
2021/12/04 12:53:44;;;;;;;5.03;1.17;;;;;;;14.12;42.16;99834.34;4877711;29;20049;-81
2021/12/04 12:56:13;;;;;;;9.30;1.98;;;;;;;14.17;42.16;99828.56;4865228;29;20041;-82
2021/12/04 12:59:04;;;;;;;7.03;2.35;;;;;;;14.27;41.96;99830.75;4861686;29;20501;-81
2021/12/04 13:12:58;;;;;;;3.00;1.20;;;;;;;14.32;41.76;99851.66;4881665;29;20194;-82
2021/12/04 13:15:37;;;;;;;6.05;1.45;;;;;;;14.58;41.54;99846.34;4865896;29;20119;-82
2021/12/04 13:18:16;;;;;;;5.45;0.93;;;;;;;14.71;40.99;99852.50;4867415;29;20475;-82
2021/12/04 13:20:43;;;;;;;9.80;1.70;;;;;;;14.63;41.18;99842.53;4864546;29;20029;-82
2021/12/04 13:23:15;;;;;;;3.60;1.63;;;;;;;14.57;41.41;99849.47;4881058;29;20096;-82
2021/12/04 13:25:59;;;;;;;2.40;1.10;;;;;;;14.71;41.38;99845.06;4864513;29;20029;-82
2021/12/04 13:28:28;;;;;;;3.60;1.38;;;;;;;14.85;40.72;99844.53;4850097;29;20025;-82
2021/12/04 13:30:54;;;;;;;6.18;1.13;;;;;;;14.88;40.61;99845.75;4848759;29;20477;-81
2021/12/04 13:33:20;;;;;;;3.45;1.20;;;;;;;14.29;41.96;99847.69;4862989;29;20032;-82
2021/12/04 13:35:46;;;;;;;3.30;1.10;;;;;;;14.31;42.03;99853.59;4879030;29;20483;-83
2021/12/04 13:38:16;;;;;;;6.63;1.50;;;;;;;14.87;40.90;99847.72;4880927;29;20033;-80
2021/12/04 13:40:48;;;;;;;5.75;1.52;;;;;;;15.11;39.96;99848.56;4864020;29;20120;-80
2021/12/04 13:43:15;;;;;;;9.10;1.75;;;;;;;14.63;41.34;99857.06;4880869;29;20480;-80
2021/12/04 13:45:41;;;;;;;9.23;1.38;;;;;;;15.41;39.51;99854.19;4864088;29;20033;-80
2021/12/04 13:48:08;;;;;;;2.50;1.10;;;;;;;15.25;40.01;99868.06;4869535;29;20032;-80
2021/12/04 13:53:13;;;;;;;8.40;1.88;;;;;;;15.13;40.39;99866.31;4879837;29;20508;-82
2021/12/04 13:55:43;;;;;;;5.97;1.90;;;;;;;14.91;40.90;99883.56;4880281;29;20041;-81
2021/12/04 13:58:09;;;;;;;4.07;1.52;;;;;;;15.16;40.63;99903.28;4863168;29;20092;-82
2021/12/04 14:00:35;;;;;;;6.88;2.00;;;;;;;15.06;40.80;99892.88;4879977;29;20488;-83
2021/12/04 14:03:01;;;;;;;7.55;2.10;;;;;;;14.11;41.98;99896.72;4880134;29;20029;-82
2021/12/04 14:05:27;;;;;;;8.07;1.48;;;;;;;14.92;40.63;99887.91;4863650;29;20021;-81
2021/12/04 14:07:59;;;;;;;3.50;1.50;;;;;;;14.60;41.31;99895.50;4878813;29;20029;-82
2021/12/04 14:10:34;;;;;;;4.85;2.15;;;;;;;14.65;41.08;99895.97;4862145;29;20076;-81
2021/12/04 14:13:03;;;;;;;2.08;1.20;;;;;;;13.89;42.29;99902.84;4863287;29;20033;-82
2021/12/04 14:15:29;;;;;;;8.07;1.90;;;;;;;14.79;40.45;99903.75;4879562;29;20029;-81
2021/12/04 14:18:06;;;;;;;7.97;1.60;;;;;;;14.80;40.75;99916.31;4863234;29;20025;-79
2021/12/04 14:20:34;;;;;;;7.88;1.70;;;;;;;14.74;40.64;99901.28;4863301;29;20092;-79
2021/12/04 14:23:00;;;;;;;4.95;1.17;;;;;;;14.43;41.34;99911.22;4863223;29;20480;-79
2021/12/04 14:25:26;;;;;;;7.15;1.50;;;;;;;14.56;40.91;99906.41;4863335;29;20033;-79
2021/12/04 14:27:54;;;;;;;5.55;1.30;;;;;;;14.63;40.94;99903.00;4880132;29;20025;-80
2021/12/04 14:30:25;;;;;;;3.78;1.75;;;;;;;14.54;40.91;99907.91;4863547;29;20036;-81
2021/12/04 14:32:55;;;;;;;6.00;1.45;;;;;;;14.65;40.98;99914.44;4863377;29;20021;-80
2021/12/04 14:35:25;;;;;;;4.20;1.45;;;;;;;14.36;41.37;99913.78;4863177;29;20437;-76
2021/12/04 14:37:55;;;;;;;3.88;1.00;;;;;;;14.55;41.08;99928.75;4879606;29;20484;-78
2021/12/04 14:40:31;;;;;;;3.08;1.00;;;;;;;14.48;40.98;99923.09;4879774;29;20029;-78
2021/12/04 14:42:57;;;;;;;3.63;0.93;;;;;;;14.53;40.87;99920.88;4879645;29;20040;-79
2021/12/04 14:45:26;;;;;;;2.35;0.90;;;;;;;14.62;40.86;99917.91;4863064;29;20049;-79
2021/12/04 14:48:06;;;;;;;3.78;1.23;;;;;;;14.29;41.52;99927.38;4862952;29;20068;-79
2021/12/04 14:50:32;;;;;;;;;;;;;;;14.13;41.86;99934.81;4862025;29;20033;-81
2021/12/04 14:53:05;;;;;;;5.97;1.33;;;;;;;14.04;42.05;99942.44;4861430;29;19947;-83
2021/12/04 14:55:41;;;;;;;3.50;1.35;;;;;;;14.32;41.27;99950.59;4878013;29;20445;-81
2021/12/04 14:58:12;;;;;;;5.43;2.00;;;;;;;14.40;40.91;99955.88;4877712;29;20080;-81
2021/12/04 15:00:41;;;;;;;6.82;0.93;;;;;;;14.37;41.15;99953.88;4876172;29;20057;-82
2021/12/04 15:03:20;;;;;;;2.88;1.25;;;;;;;14.13;41.92;99962.28;4861416;29;20025;-81
2021/12/04 15:05:53;;;;;;;3.70;1.33;;;;;;;14.15;41.37;99955.31;4860190;29;20706;-81
2021/12/04 15:08:28;;;;;;;3.88;1.10;;;;;;;14.31;41.13;99954.50;4875554;29;20029;-81
2021/12/04 15:11:07;;;;;;;3.45;1.08;;;;;;;14.19;40.99;99958.13;4861179;29;20103;-81
2021/12/04 15:13:37;;;;;;;3.05;1.13;;;;;;;14.24;40.78;99966.09;4858849;29;20040;-82
2021/12/04 15:16:06;;;;;;;4.85;0.93;;;;;;;14.26;40.85;99968.50;4861135;29;20031;-82
2021/12/04 15:18:35;;;;;;;2.75;1.00;;;;;;;14.06;41.15;99956.66;4877876;29;20047;-82
2021/12/04 15:21:15;;;;;;;6.65;1.33;;;;;;;14.06;40.96;99967.63;4860625;29;20391;-82
2021/12/04 15:23:42;;;;;;;4.00;0.98;;;;;;;13.75;41.59;99982.94;4876250;29;20029;-81
2021/12/04 15:26:16;;;;;;;3.83;1.40;;;;;;;13.74;41.66;99995.06;4861253;29;20552;-81
2021/12/04 15:28:50;;;;;;;8.40;2.75;;;;;;;14.01;41.11;99998.09;4859876;29;20055;-80
2021/12/04 15:31:17;;;;;;;4.32;0.90;;;;;;;13.58;41.43;100002.47;4877502;29;20028;-82
2021/12/04 15:33:47;;;;;;;4.15;1.38;;;;;;;13.78;41.20;100020.66;4860853;29;20449;-82
2021/12/04 15:36:24;;;;;;;7.55;1.67;;;;;;;14.03;40.57;100029.56;4860850;29;20055;-82
2021/12/04 15:38:52;;;;;;;5.32;1.60;;;;;;;13.73;41.29;100026.41;4860790;29;20032;-82
2021/12/04 15:42:13;;;;;;;2.63;1.00;;;;;;;13.86;40.91;100033.44;4850619;29;20779;-81
2021/12/04 15:47:16;;;;;;;7.05;1.55;;;;;;;13.62;41.32;100060.22;4875842;29;20044;-82
2021/12/04 15:55:11;;;;;;;5.40;1.80;;;;;;;13.61;41.15;100064.91;4866901;29;20071;-78
2021/12/04 15:57:37;;;;;;;2.90;1.27;;;;;;;13.81;40.85;100074.88;4865340;29;20048;-83
2021/12/04 16:00:13;;;;;;;8.73;2.30;;;;;;;13.90;40.58;100077.47;4867967;29;20028;-80
2021/12/04 16:02:44;;;;;;;5.30;2.72;;;;;;;13.67;41.00;100079.97;4852239;29;20041;-82
2021/12/04 16:05:19;;;;;;;5.20;2.10;;;;;;;13.77;40.88;100093.22;4867164;29;20088;-82
2021/12/04 16:07:49;;;;;;;5.00;1.58;;;;;;;13.65;41.20;100098.75;4852846;29;20029;-83
2021/12/04 16:10:17;;;;;;;7.80;1.50;;;;;;;13.59;41.31;100111.09;4844071;29;20033;-81
2021/12/04 16:12:51;;;;;;;12.98;5.65;;;;;;;13.82;40.69;100119.59;4843951;29;20441;-82
2021/12/04 16:15:20;;;;;;;7.15;2.40;;;;;;;13.56;41.36;100118.09;4826573;29;20488;-82
2021/12/04 16:17:46;;;;;;;6.72;2.15;;;;;;;13.64;41.13;100135.56;4829163;29;20449;-82
2021/12/04 16:20:16;;;;;;;4.63;1.88;;;;;;;13.57;41.24;100132.63;4859145;29;20037;-82
2021/12/04 16:22:41;;;;;;;13.48;3.95;;;;;;;13.60;41.23;100124.50;4844119;29;20121;-81
2021/12/04 16:25:17;;;;;;;2.95;1.73;;;;;;;13.72;41.13;100126.41;4843188;29;20152;-81
2021/12/04 16:28:08;;;;;;;3.67;1.00;;;;;;;13.51;41.57;100125.78;4866523;29;20025;-81
2021/12/04 16:37:58;;;;;;;3.30;1.20;;;;;;;13.15;42.20;100140.31;4848666;29;20037;-82
2021/12/04 16:40:32;;;;;;;5.65;1.52;;;;;;;13.30;41.88;100142.41;4849483;29;20029;-80
2021/12/04 16:43:03;;;;;;;4.13;1.58;;;;;;;13.31;42.01;100144.00;4848028;29;20493;-81
2021/12/04 16:45:31;;;;;;;4.32;1.77;;;;;;;12.97;42.75;100146.06;4830441;29;20128;-79
2021/12/04 16:48:05;;;;;;;7.05;3.45;;;;;;;13.09;42.44;100148.00;4848038;29;20032;-79
2021/12/04 16:54:47;;;;;;;8.18;2.35;;;;;;;12.95;42.67;100150.28;4847445;29;20037;-79
2021/12/04 16:56:51;;;;;;;2.92;1.42;;;;;;;12.82;42.98;100154.16;4865835;29;20899;-80
2021/12/04 16:59:04;;;;;;;4.22;1.73;;;;;;;12.74;43.34;100161.34;4861678;29;20049;-79
2021/12/04 17:01:31;;;;;;;5.88;1.92;;;;;;;12.54;43.89;100171.25;4865445;29;20033;-75
2021/12/04 17:03:57;;;;;;;6.68;1.77;;;;;;;12.63;43.66;100163.75;4865967;29;20040;-78
2021/12/04 17:06:23;;;;;;;4.88;1.63;;;;;;;12.32;44.26;100167.00;4876755;29;20029;-79
2021/12/04 17:08:50;;;;;;;5.65;2.20;;;;;;;12.17;44.73;100162.97;4859695;29;20109;-79
2021/12/04 17:11:16;;;;;;;6.38;2.25;;;;;;;12.73;43.40;100173.47;4865900;29;20112;-80
2021/12/04 17:13:42;;;;;;;6.50;2.13;;;;;;;12.30;44.46;100182.16;4867758;29;20025;-79
2021/12/04 17:16:07;;;;;;;4.28;2.08;;;;;;;12.49;43.90;100185.19;4864015;29;20035;-80
2021/12/04 17:18:39;;;;;;;4.80;1.58;;;;;;;12.22;44.55;100186.59;4876849;29;20476;-80
2021/12/04 17:21:05;;;;;;;4.68;1.63;;;;;;;11.98;45.20;100186.50;4879904;29;20036;-81
2021/12/04 17:23:30;;;;;;;4.18;1.85;;;;;;;11.83;45.56;100188.69;4866809;29;20374;-80
2021/12/04 17:25:58;;;;;;;5.75;1.83;;;;;;;11.55;46.16;100196.59;4871214;29;20025;-80
2021/12/04 17:28:25;;;;;;;4.53;1.77;;;;;;;11.70;45.72;100197.94;4864949;29;20484;-80
2021/12/04 17:30:51;;;;;;;4.95;2.05;;;;;;;11.97;45.13;100195.84;4880876;29;20491;-80
2021/12/04 17:33:17;;;;;;;4.05;1.98;;;;;;;11.99;45.29;100191.63;4881595;29;20025;-80
2021/12/04 17:35:43;;;;;;;4.07;1.70;;;;;;;11.73;45.76;100182.81;4880557;29;20515;-77
2021/12/04 17:38:08;;;;;;;5.18;1.98;;;;;;;11.98;45.08;100200.19;4881231;29;20060;-77
2021/12/04 17:40:35;;;;;;;9.07;3.15;;;;;;;11.72;45.66;100194.91;4881334;29;20112;-77
2021/12/04 17:43:03;;;;;;;5.30;2.15;;;;;;;11.47;46.29;100194.72;4864537;29;20036;-77
2021/12/04 17:45:29;;;;;;;5.15;2.15;;;;;;;11.50;46.16;100198.75;4880459;29;20116;-77
2021/12/04 17:47:56;;;;;;;4.70;1.98;;;;;;;11.52;46.21;100207.41;4881313;29;20029;-78
2021/12/04 17:50:26;;;;;;;4.72;1.83;;;;;;;11.69;45.62;100210.03;4881384;29;20040;-77
2021/12/04 17:52:55;;;;;;;4.45;2.08;;;;;;;11.76;45.35;100221.25;4883360;29;20080;-81
2021/12/04 17:55:21;;;;;;;7.45;2.70;;;;;;;11.96;45.04;100227.09;4865898;29;20369;-81
2021/12/04 17:57:48;;;;;;;5.68;2.42;;;;;;;11.48;46.00;100220.16;4863481;29;20060;-77
2021/12/04 18:00:19;;;;;;;4.32;1.88;;;;;;;11.27;46.61;100228.34;4880651;29;20036;-77
2021/12/04 18:02:45;;;;;;;5.72;2.70;;;;;;;11.77;45.13;100244.75;4899815;29;20084;-77
2021/12/04 18:05:11;;;;;;;6.20;2.95;;;;;;;11.73;45.29;100262.19;4887691;29;20391;-77
2021/12/04 18:07:37;;;;;;;5.68;2.15;;;;;;;11.76;45.34;100261.50;4864798;29;20033;-77
2021/12/04 18:10:08;;;;;;;7.15;2.17;;;;;;;11.80;45.16;100262.47;4864772;29;20029;-78
2021/12/04 18:12:44;;;;;;;5.75;2.10;;;;;;;11.73;45.28;100275.88;4864746;29;20618;-78
2021/12/04 18:15:19;;;;;;;7.95;2.65;;;;;;;11.74;45.32;100272.00;4864474;29;20025;-77
2021/12/04 18:17:45;;;;;;;6.95;2.80;;;;;;;11.73;45.38;100284.06;4864835;29;20120;-78
2021/12/04 18:20:10;;;;;;;5.47;2.17;;;;;;;11.74;45.58;100296.63;4864708;29;20116;-82
2021/12/04 18:22:36;;;;;;;4.93;2.05;;;;;;;11.59;45.48;100295.25;4866523;29;20040;-79
2021/12/04 18:25:04;;;;;;;5.03;2.38;;;;;;;11.93;44.77;100300.53;4868394;29;20090;-82
2021/12/04 18:27:34;;;;;;;4.60;1.90;;;;;;;11.75;45.45;100298.22;4866018;29;20064;-82
2021/12/04 18:30:00;;;;;;;4.88;1.80;;;;;;;11.91;45.01;100304.75;4848466;29;20756;-84
2021/12/04 18:32:26;;;;;;;9.73;2.20;;;;;;;11.82;45.14;100307.56;4846495;29;20218;-78
2021/12/04 18:34:51;;;;;;;5.88;1.80;;;;;;;11.90;44.94;100316.84;4863803;29;20025;-78
2021/12/04 18:37:17;;;;;;;7.65;2.28;;;;;;;11.79;45.06;100312.84;4864016;29;20069;-81
2021/12/04 18:39:44;;;;;;;6.47;2.38;;;;;;;11.98;44.66;100315.19;4863756;29;20396;-75
2021/12/04 18:42:10;;;;;;;8.85;2.05;;;;;;;11.97;44.54;100322.59;4863505;29;20076;-76
2021/12/04 18:44:36;;;;;;;5.65;1.90;;;;;;;12.00;44.56;100332.06;4869380;29;20488;-77
2021/12/04 18:47:02;;;;;;;8.18;3.78;;;;;;;11.70;44.86;100326.56;4879759;29;20089;-77
2021/12/04 18:49:28;;;;;;;7.13;3.08;;;;;;;11.97;44.42;100332.75;4862639;29;20037;-77
2021/12/04 18:51:56;;;;;;;9.18;4.40;;;;;;;11.96;44.41;100331.94;4865964;29;20119;-77
2021/12/04 18:54:24;;;;;;;4.28;1.73;;;;;;;11.79;44.96;100330.09;4871300;29;20492;-76
2021/12/04 18:56:50;;;;;;;6.35;2.95;;;;;;;11.90;44.91;100341.47;4878021;29;20029;-76
2021/12/04 18:59:16;;;;;;;8.30;2.60;;;;;;;12.10;44.48;100343.47;4879144;29;20041;-78
2021/12/04 19:01:42;;;;;;;5.13;2.42;;;;;;;12.28;43.84;100346.06;4879300;29;20021;-77
2021/12/04 19:04:09;;;;;;;5.43;2.97;;;;;;;12.15;44.16;100358.88;4862452;29;20037;-79
2021/12/04 19:06:41;;;;;;;6.68;2.72;;;;;;;12.22;44.19;100353.66;4879109;29;20464;-79
2021/12/04 19:09:10;;;;;;;4.75;1.77;;;;;;;12.02;44.69;100351.72;4878502;29;20396;-78
2021/12/04 19:11:36;;;;;;;10.32;3.45;;;;;;;12.06;44.74;100366.34;4878604;29;20119;-78
2021/12/04 19:14:04;;;;;;;4.13;1.98;;;;;;;12.07;44.64;100371.50;4872031;29;20077;-79
2021/12/04 19:16:30;;;;;;;7.47;2.00;;;;;;;12.02;44.79;100388.13;4873939;29;20469;-79
2021/12/04 19:18:56;;;;;;;7.80;7.00;;;;;;;12.12;44.42;100385.00;4863356;29;20483;-77
2021/12/04 19:21:24;;;;;;;9.27;3.95;;;;;;;11.82;44.92;100383.41;4863078;29;21021;-76
2021/12/04 19:23:54;;;;;;;6.65;2.42;;;;;;;11.94;44.84;100389.78;4845564;29;20123;-78
2021/12/04 19:26:20;;;;;;;9.57;2.03;;;;;;;12.12;44.23;100395.16;4862612;29;20120;-76
2021/12/04 19:28:48;;;;;;;5.93;2.20;;;;;;;11.99;44.67;100407.13;4863276;29;20051;-75
2021/12/04 19:31:19;;;;;;;4.93;2.00;;;;;;;12.14;44.14;100407.38;4866018;29;20025;-75
2021/12/04 19:52:42;;;;;;;11.68;7.70;;;;;;;12.25;44.14;100450.84;4869943;29;20090;-77
2021/12/04 19:55:11;;;;;;;6.25;3.20;;;;;;;12.43;43.54;100455.06;4860510;29;20029;-76
2021/12/04 19:57:43;;;;;;;6.28;2.78;;;;;;;12.34;43.64;100459.81;4860396;29;20033;-76
2021/12/04 20:00:16;;;;;;;5.28;2.03;;;;;;;12.34;43.89;100473.50;4860356;29;20041;-77
2021/12/04 20:13:37;;;;;;;3.53;1.65;;;;;;;12.41;43.86;100480.06;4860363;29;20086;-79
2021/12/04 20:16:10;;;;;;;5.72;2.00;;;;;;;12.40;43.98;100477.66;4837173;29;20128;-79
2021/12/04 20:18:38;;;;;;;7.32;2.47;;;;;;;12.38;43.99;100488.13;4842640;29;20427;-79
2021/12/04 20:21:07;;;;;;;5.13;2.42;;;;;;;12.18;44.39;100495.97;4831349;29;20032;-76
2021/12/04 20:23:35;;;;;;;5.88;2.45;;;;;;;12.39;43.84;100503.44;4859599;29;20029;-74
2021/12/04 20:26:04;;;;;;;6.07;2.15;;;;;;;12.54;43.30;100499.31;4860148;29;20090;-76
2021/12/04 20:31:31;;;;;;;5.20;2.55;;;;;;;12.61;42.98;100514.09;4860155;29;20040;-74
2021/12/04 21:06:26;;;;;;;5.65;2.00;;;;;;;12.89;42.78;100555.53;4861033;29;20639;-76
2021/12/04 21:06:33;;;;;;;4.22;2.55;;;;;;;12.85;42.79;100565.59;4860468;29;20045;-76
2021/12/04 21:09:58;;;;;;;6.88;2.83;;;;;;;12.90;42.79;100562.63;4860497;29;20059;-76
2021/12/04 21:12:12;;;;;;;6.57;2.63;;;;;;;13.00;42.33;100566.94;4852857;29;20705;-76
2021/12/04 21:50:15;;;;;;;7.75;2.70;;;;;;;13.46;41.99;100626.34;4900029;29;20084;-75
2021/12/04 21:52:41;;;;;;;7.60;2.30;;;;;;;13.30;42.45;100647.28;4899743;29;20044;-76
2021/12/04 21:55:35;;;;;;;9.80;2.53;;;;;;;13.12;42.50;100648.50;4899861;29;20493;-76
2021/12/04 22:09:11;;;;;;;3.35;1.55;;;;;;;13.20;42.06;100658.63;4899925;29;20113;-76
2021/12/04 22:11:46;;;;;;;5.60;1.63;;;;;;;13.35;41.75;100660.78;4899619;29;20058;-76
2021/12/04 22:14:26;;;;;;;8.70;2.40;;;;;;;13.40;41.57;100668.84;4899540;29;20365;-77
2021/12/04 23:00:50;;;;;;;3.60;1.10;;;;;;;13.03;42.01;100744.56;4899301;29;20032;-84
2021/12/04 23:12:08;;;;;;;4.80;1.50;;;;;;;13.04;42.07;100770.84;4898866;29;20044;-79
2021/12/04 23:14:40;;;;;;;4.45;1.42;;;;;;;13.20;41.72;100774.69;4898552;29;20047;-79
2021/12/04 23:46:00;;;;;;;5.93;2.17;;;;;;;12.78;42.64;100818.34;4898218;29;20052;-79
